Time;durP1;ratioP1;P1;durP2;ratioP2;P2;SDS_P1;SDS_P2;PMS_P1;PMS_P2;Temp;Humidity;BMP_temperature;BMP_pressure;BME280_temperature;BME280_humidity;BME280_pressure;Samples;Min_cycle;Max_cycle;Signal;HPM_P1;HPM_P2
2022/05/30 00:02:10;;;;;;;5.45;1.42;;;20.80;44.30;20.00;100869.00;;;;5057604;28;20095;-66
2022/05/30 00:04:57;;;;;;;5.50;0.95;;;20.80;44.30;20.00;100857.00;;;;5063341;28;20067;-66
2022/05/30 00:07:43;;;;;;;2.58;0.70;;;20.80;44.30;20.00;100870.00;;;;5057095;28;20032;-66
2022/05/30 00:10:29;;;;;;;2.95;0.70;;;20.80;44.30;20.00;100866.00;;;;5055911;28;20048;-66
2022/05/30 00:13:15;;;;;;;2.55;0.68;;;20.80;44.30;20.00;100874.00;;;;5057542;28;20174;-66
2022/05/30 00:16:10;;;;;;;3.22;0.75;;;20.80;44.40;20.00;100865.00;;;;5047008;28;20497;-66
2022/05/30 00:18:57;;;;;;;3.10;0.90;;;20.80;44.40;20.00;100867.00;;;;5044080;28;20460;-66
2022/05/30 00:21:44;;;;;;;4.32;1.00;;;20.70;44.30;20.00;100867.00;;;;5057612;28;20044;-66
2022/05/30 00:24:31;;;;;;;3.70;0.88;;;20.80;44.40;20.00;100867.00;;;;5055560;28;20044;-66
2022/05/30 00:27:18;;;;;;;1.65;0.77;;;20.80;44.40;20.00;100858.00;;;;5072776;28;20040;-66
2022/05/30 00:30:04;;;;;;;2.13;0.80;;;20.80;44.40;19.90;100867.00;;;;5074766;28;20052;-67
2022/05/30 00:32:50;;;;;;;3.05;0.88;;;20.80;44.40;20.00;100860.00;;;;5076068;28;20036;-66
2022/05/30 00:35:37;;;;;;;4.32;1.27;;;20.80;44.40;19.90;100860.00;;;;5060172;28;20052;-66
2022/05/30 00:38:23;;;;;;;3.65;1.00;;;20.80;44.40;20.00;100864.00;;;;5046564;28;20047;-66
2022/05/30 00:41:09;;;;;;;4.75;1.00;;;20.80;44.40;19.90;100864.00;;;;5058540;28;20303;-66
2022/05/30 00:43:55;;;;;;;4.60;1.13;;;20.80;44.40;19.90;100866.00;;;;5058350;28;20045;-66
2022/05/30 00:46:41;;;;;;;2.92;0.77;;;20.70;44.30;19.90;100857.00;;;;5060641;28;20048;-66
2022/05/30 00:49:27;;;;;;;4.70;0.70;;;20.70;44.30;19.90;100858.00;;;;5059428;28;20045;-66
2022/05/30 00:52:38;;;;;;;2.50;0.65;;;20.70;44.40;20.00;100858.00;;;;5059474;28;20119;-66
2022/05/30 00:55:24;;;;;;;4.60;0.95;;;20.70;44.40;19.90;100861.00;;;;5045613;28;20055;-66
2022/05/30 00:58:11;;;;;;;3.45;0.77;;;20.70;44.40;19.90;100862.00;;;;5044520;28;20478;-66
2022/05/30 01:00:58;;;;;;;4.13;0.88;;;20.70;44.40;19.90;100858.00;;;;5050778;28;20481;-66
2022/05/30 01:06:56;;;;;;;2.75;0.68;;;20.70;44.40;19.90;100866.00;;;;5037545;28;20055;-67
2022/05/30 01:09:44;;;;;;;2.72;0.77;;;20.70;44.40;19.90;100871.00;;;;5056981;28;20048;-66
2022/05/30 01:12:38;;;;;;;5.18;1.15;;;20.70;45.10;19.90;100862.00;;;;5047213;28;20040;-66
2022/05/30 01:15:27;;;;;;;2.17;0.77;;;20.70;44.40;19.90;100862.00;;;;5057321;28;20123;-66
2022/05/30 01:18:32;;;;;;;4.00;0.95;;;20.70;44.50;19.90;100856.00;;;;5060926;28;20048;-66
2022/05/30 01:21:45;;;;;;;2.78;0.85;;;20.70;44.50;19.90;100852.00;;;;5056979;28;20106;-66
2022/05/30 01:24:54;;;;;;;2.17;0.82;;;20.70;44.50;19.90;100851.00;;;;5059142;28;20052;-66
2022/05/30 01:28:01;;;;;;;;;;;20.70;44.50;19.90;100851.00;;;;5065053;28;20094;-66
2022/05/30 01:30:47;;;;;;;2.75;0.80;;;20.70;44.50;19.90;100854.00;;;;5056285;28;19916;-66
2022/05/30 01:33:33;;;;;;;6.13;0.80;;;20.70;44.40;19.80;100848.00;;;;5063859;28;20040;-66
2022/05/30 01:36:24;;;;;;;4.65;0.77;;;20.70;44.50;19.90;100851.00;;;;5064302;28;20060;-66
2022/05/30 01:39:10;;;;;;;3.10;0.88;;;20.70;44.50;19.80;100847.00;;;;5043921;28;20763;-66
2022/05/30 01:41:56;;;;;;;3.20;0.90;;;20.60;44.50;19.90;100837.00;;;;5057447;28;20033;-66
2022/05/30 01:44:43;;;;;;;5.75;1.02;;;20.70;44.60;19.90;100847.00;;;;5057034;28;20041;-66
2022/05/30 01:47:29;;;;;;;2.75;0.70;;;20.70;44.60;19.90;100852.00;;;;5048999;28;20049;-66
2022/05/30 01:50:15;;;;;;;3.08;0.75;;;20.60;44.50;19.90;100848.00;;;;5057176;28;20533;-66
2022/05/30 01:53:01;;;;;;;6.90;1.63;;;20.70;44.60;19.90;100847.00;;;;5052815;28;20032;-67
2022/05/30 01:55:47;;;;;;;2.88;0.75;;;20.70;44.60;19.90;100852.00;;;;5075268;28;20044;-67
2022/05/30 01:58:33;;;;;;;5.40;1.00;;;20.60;44.50;19.90;100854.00;;;;5063488;28;20036;-66
2022/05/30 02:01:26;;;;;;;3.13;0.80;;;20.60;44.60;19.90;100852.00;;;;5042904;28;20111;-66
2022/05/30 02:04:13;;;;;;;3.45;0.95;;;20.60;44.50;19.90;100843.00;;;;5062011;28;20059;-67
2022/05/30 02:06:59;;;;;;;4.03;0.98;;;20.60;44.60;19.80;100844.00;;;;5074528;28;20033;-67
2022/05/30 02:09:45;;;;;;;2.03;0.70;;;20.70;44.60;19.80;100833.00;;;;5054953;28;20613;-66
2022/05/30 02:12:31;;;;;;;3.05;1.05;;;20.60;44.50;19.80;100839.00;;;;5060035;28;20044;-66
2022/05/30 02:15:17;;;;;;;5.00;1.00;;;20.60;44.50;19.80;100845.00;;;;5063657;28;20061;-66
2022/05/30 02:18:03;;;;;;;4.80;1.00;;;20.60;44.60;19.80;100848.00;;;;5050570;28;20398;-66
2022/05/30 02:20:49;;;;;;;1.30;0.52;;;20.60;44.60;19.80;100843.00;;;;5055545;28;20115;-66
2022/05/30 02:23:35;;;;;;;2.42;0.90;;;20.70;44.60;19.80;100843.00;;;;5051096;28;20033;-66
2022/05/30 02:26:21;;;;;;;3.05;0.90;;;20.60;44.60;19.80;100846.00;;;;5067115;28;20049;-66
2022/05/30 02:29:07;;;;;;;5.20;1.10;;;20.60;44.60;19.80;100844.00;;;;5063213;28;20063;-66
2022/05/30 02:31:53;;;;;;;2.00;0.85;;;20.60;44.60;19.80;100838.00;;;;5059586;28;20098;-66
2022/05/30 02:37:44;;;;;;;3.28;1.10;;;20.60;44.70;19.80;100843.00;;;;5065107;28;20035;-67
2022/05/30 02:40:30;;;;;;;3.25;0.80;;;20.50;44.60;19.80;100832.00;;;;5063137;28;20932;-66
2022/05/30 02:43:16;;;;;;;3.50;1.00;;;20.60;44.60;19.80;100838.00;;;;5060915;28;20460;-66
2022/05/30 02:46:02;;;;;;;1.85;0.60;;;20.60;44.60;19.80;100843.00;;;;5060303;28;20048;-66
2022/05/30 02:48:48;;;;;;;2.45;0.80;;;20.60;44.70;19.80;100838.00;;;;5053852;28;20124;-66
2022/05/30 02:51:34;;;;;;;4.55;1.08;;;20.60;44.60;19.80;100846.00;;;;5052441;28;20049;-66
2022/05/30 02:54:20;;;;;;;4.05;0.85;;;20.60;44.60;19.80;100844.00;;;;5051004;28;20052;-66
2022/05/30 02:57:06;;;;;;;4.30;1.75;;;20.60;44.60;19.80;100844.00;;;;5035443;28;20080;-66
2022/05/30 02:59:52;;;;;;;3.00;0.77;;;20.60;44.60;19.80;100838.00;;;;5054220;28;20043;-66
2022/05/30 03:02:38;;;;;;;4.82;0.80;;;20.60;44.60;19.80;100844.00;;;;5061612;28;20398;-66
2022/05/30 03:05:24;;;;;;;3.88;1.00;;;20.60;44.60;19.80;100838.00;;;;5061092;28;20036;-66
2022/05/30 03:08:11;;;;;;;2.22;0.70;;;20.60;44.60;19.80;100844.00;;;;5056158;28;20477;-66
2022/05/30 03:10:57;;;;;;;3.13;0.85;;;20.60;44.60;19.80;100835.00;;;;5046779;28;20056;-66
2022/05/30 03:13:44;;;;;;;1.92;0.70;;;20.60;44.60;19.80;100850.00;;;;5062157;28;20075;-66
2022/05/30 03:16:30;;;;;;;3.13;0.80;;;20.60;44.50;19.80;100844.00;;;;5047737;28;20264;-66
2022/05/30 03:19:16;;;;;;;3.03;0.95;;;20.60;44.60;19.80;100849.00;;;;5047551;28;20504;-66
2022/05/30 03:22:03;;;;;;;2.67;0.60;;;20.60;44.50;19.80;100849.00;;;;5057636;28;20036;-66
2022/05/30 03:24:49;;;;;;;2.80;0.95;;;20.60;44.60;19.80;100852.00;;;;5045997;28;20393;-66
2022/05/30 03:27:35;;;;;;;3.67;1.00;;;20.60;44.60;19.80;100849.00;;;;5060656;28;20138;-66
2022/05/30 03:30:21;;;;;;;4.63;0.95;;;20.60;44.60;19.70;100849.00;;;;5061109;28;20421;-66
2022/05/30 03:33:08;;;;;;;4.28;0.90;;;20.50;44.50;19.80;100847.00;;;;5060731;28;20048;-66
2022/05/30 03:35:55;;;;;;;2.60;0.80;;;20.60;44.60;19.80;100848.00;;;;5049426;28;20036;-66
2022/05/30 03:38:41;;;;;;;3.50;1.10;;;20.60;44.60;19.80;100851.00;;;;5077300;28;20117;-66
2022/05/30 03:41:27;;;;;;;2.05;0.70;;;20.60;44.60;19.70;100843.00;;;;5062989;28;20102;-66
2022/05/30 03:44:13;;;;;;;2.58;0.80;;;20.50;44.50;19.70;100839.00;;;;5065429;28;20500;-66
2022/05/30 03:46:59;;;;;;;3.05;0.70;;;20.50;44.50;19.70;100849.00;;;;5061668;28;20039;-66
2022/05/30 03:49:45;;;;;;;2.53;0.80;;;20.50;44.60;19.70;100851.00;;;;5061868;28;20413;-66
2022/05/30 03:52:31;;;;;;;5.03;1.13;;;20.50;44.60;19.70;100848.00;;;;5065110;28;20043;-66
2022/05/30 03:55:42;;;;;;;3.95;0.60;;;20.50;44.60;19.70;100860.00;;;;5061618;28;20114;-66
2022/05/30 03:58:28;;;;;;;2.30;0.77;;;20.50;44.60;19.70;100857.00;;;;5072685;28;20090;-66
2022/05/30 04:01:14;;;;;;;2.47;0.80;;;20.50;44.60;19.70;100855.00;;;;5062027;28;20064;-66
2022/05/30 04:04:00;;;;;;;2.03;0.82;;;20.50;44.60;19.70;100856.00;;;;5047409;28;20090;-66
2022/05/30 04:06:46;;;;;;;2.22;0.50;;;20.50;44.70;19.70;100854.00;;;;5044402;28;20040;-66
2022/05/30 04:09:32;;;;;;;2.28;0.60;;;20.50;44.70;19.70;100858.00;;;;5054630;28;20052;-66
2022/05/30 04:12:22;;;;;;;4.03;1.20;;;20.50;44.70;19.70;100855.00;;;;5058513;28;20048;-66
2022/05/30 04:15:15;;;;;;;4.00;0.98;;;20.50;44.70;19.70;100857.00;;;;5056954;28;20044;-66
2022/05/30 04:18:01;;;;;;;5.05;1.20;;;20.50;44.70;19.70;100866.00;;;;5042448;28;20037;-66
2022/05/30 04:20:47;;;;;;;2.70;1.08;;;20.50;44.70;19.70;100856.00;;;;5046728;28;20091;-66
2022/05/30 04:23:33;;;;;;;2.70;0.75;;;20.50;44.70;19.70;100862.00;;;;5061262;28;20036;-66
2022/05/30 04:26:19;;;;;;;2.78;0.60;;;20.50;44.70;19.70;100862.00;;;;5045174;28;20071;-66
2022/05/30 04:29:07;;;;;;;2.92;1.23;;;20.50;44.80;19.70;100859.00;;;;5046319;28;20113;-66
2022/05/30 04:31:53;;;;;;;2.22;1.02;;;20.50;44.80;19.70;100862.00;;;;5049276;28;20048;-66
2022/05/30 04:34:39;;;;;;;4.68;0.70;;;20.50;44.80;19.70;100864.00;;;;5061062;28;20598;-66
2022/05/30 04:37:27;;;;;;;2.22;0.63;;;20.50;44.80;19.70;100870.00;;;;5059797;28;20032;-67
2022/05/30 04:40:16;;;;;;;;;;;20.50;45.50;19.70;100862.00;;;;5069855;28;20035;-66
2022/05/30 04:43:02;;;;;;;2.80;0.68;;;20.50;44.80;19.70;100866.00;;;;5060011;28;20497;-66
2022/05/30 04:46:02;;;;;;;3.10;0.68;;;20.50;44.70;19.70;100865.00;;;;5042538;28;20029;-66
2022/05/30 04:48:48;;;;;;;1.88;0.70;;;20.40;44.80;19.70;100861.00;;;;5047859;28;20142;-66
2022/05/30 04:51:37;;;;;;;0.80;0.40;;;20.50;44.80;19.70;100865.00;;;;5061020;28;20043;-66
2022/05/30 04:54:24;;;;;;;2.35;0.65;;;20.50;44.90;19.70;100874.00;;;;5059777;28;20041;-66
2022/05/30 04:57:11;;;;;;;;;;;20.50;44.90;19.70;100873.00;;;;5058892;28;20070;-66
2022/05/30 04:59:58;;;;;;;2.33;0.77;;;20.40;44.80;19.60;100880.00;;;;5039652;28;19966;-66
2022/05/30 05:02:44;;;;;;;2.42;0.70;;;20.50;44.80;19.60;100880.00;;;;5057422;28;20510;-66
2022/05/30 05:05:30;;;;;;;1.40;0.60;;;20.50;44.80;19.60;100880.00;;;;5060436;28;20040;-66
2022/05/30 05:08:19;;;;;;;1.58;0.55;;;20.50;44.80;19.60;100879.00;;;;5064292;28;20056;-66
2022/05/30 05:11:20;;;;;;;2.15;0.63;;;20.50;44.90;19.70;100877.00;;;;5061253;28;20028;-66
2022/05/30 05:14:06;;;;;;;3.20;0.65;;;20.50;44.90;19.60;100881.00;;;;5077471;28;20265;-66
2022/05/30 05:16:52;;;;;;;4.45;1.10;;;20.50;44.90;19.70;100879.00;;;;5065349;28;20212;-66
2022/05/30 05:19:40;;;;;;;1.95;0.55;;;20.50;44.90;19.70;100892.00;;;;5065093;28;20037;-66
2022/05/30 05:22:26;;;;;;;2.47;0.70;;;20.50;44.80;19.70;100890.00;;;;5048620;28;20048;-66
2022/05/30 05:25:12;;;;;;;1.88;0.75;;;20.50;44.80;19.70;100893.00;;;;5061075;28;20069;-66
2022/05/30 05:27:58;;;;;;;1.70;0.38;;;20.50;44.80;19.70;100888.00;;;;5062886;28;20040;-66
2022/05/30 05:30:44;;;;;;;2.15;1.00;;;20.50;44.80;19.70;100891.00;;;;5058381;28;20040;-66
2022/05/30 05:33:30;;;;;;;2.70;0.60;;;20.40;44.80;19.70;100901.00;;;;5065134;28;20044;-66
2022/05/30 05:36:28;;;;;;;3.28;0.80;;;20.50;44.80;19.70;100894.00;;;;5046001;28;20040;-66
2022/05/30 05:39:16;;;;;;;1.98;0.73;;;20.50;44.80;19.70;100899.00;;;;5042677;28;20039;-66
2022/05/30 05:42:02;;;;;;;;;;;20.50;44.80;19.70;100898.00;;;;5051188;28;20040;-66
2022/05/30 05:44:48;;;;;;;1.55;0.60;;;20.50;44.80;19.70;100901.00;;;;5060606;28;19917;-66
2022/05/30 05:47:35;;;;;;;1.70;0.50;;;20.50;44.70;19.70;100905.00;;;;5077609;28;20037;-66
2022/05/30 05:50:21;;;;;;;4.05;1.00;;;20.50;44.70;19.60;100903.00;;;;5073555;28;20033;-66
2022/05/30 05:53:07;;;;;;;2.85;0.57;;;20.50;44.80;19.60;100899.00;;;;5048003;28;20619;-66
2022/05/30 05:55:53;;;;;;;1.27;0.80;;;20.50;44.70;19.60;100904.00;;;;5047414;28;20072;-66
2022/05/30 05:58:40;;;;;;;3.55;0.60;;;20.50;45.40;19.60;100901.00;;;;5063856;28;20044;-66
2022/05/30 06:01:29;;;;;;;2.50;0.93;;;20.50;44.70;19.60;100897.00;;;;5047428;28;20033;-66
2022/05/30 06:04:15;;;;;;;3.70;0.70;;;20.50;44.80;19.60;100902.00;;;;5061276;28;20040;-66
2022/05/30 06:07:01;;;;;;;3.90;0.88;;;20.50;44.70;19.70;100897.00;;;;5059855;28;20051;-66
2022/05/30 06:09:47;;;;;;;1.15;0.45;;;20.50;44.70;19.70;100905.00;;;;5070489;28;20070;-66
2022/05/30 06:12:34;;;;;;;2.70;1.10;;;20.50;44.70;19.70;100900.00;;;;5062882;28;20051;-66
2022/05/30 06:15:23;;;;;;;2.95;0.65;;;20.50;44.70;19.70;100904.00;;;;5047876;28;20045;-66
2022/05/30 06:18:09;;;;;;;3.03;0.60;;;20.50;44.60;19.70;100902.00;;;;5052848;28;20579;-66
2022/05/30 06:20:58;;;;;;;1.58;0.73;;;20.40;44.60;19.70;100904.00;;;;5050275;28;20040;-66
2022/05/30 06:23:46;;;;;;;1.40;0.50;;;20.50;44.60;19.70;100906.00;;;;5065274;28;20173;-66
2022/05/30 06:26:32;;;;;;;2.92;0.60;;;20.50;44.60;19.70;100903.00;;;;5073755;28;20053;-66
2022/05/30 06:29:18;;;;;;;2.78;0.93;;;20.50;44.60;19.70;100917.00;;;;5065863;28;20049;-66
2022/05/30 06:32:05;;;;;;;1.85;0.45;;;20.50;44.50;19.70;100906.00;;;;5062081;28;20051;-66
2022/05/30 06:34:51;;;;;;;1.90;0.65;;;20.50;44.50;19.70;100899.00;;;;5045822;28;20119;-66
2022/05/30 06:37:37;;;;;;;3.05;0.70;;;20.50;44.50;19.70;100908.00;;;;5077146;28;20094;-66
2022/05/30 06:40:25;;;;;;;6.30;0.77;;;20.50;44.50;19.70;100907.00;;;;5058896;28;20037;-66
2022/05/30 06:43:11;;;;;;;1.67;0.50;;;20.50;44.50;19.70;100910.00;;;;5050684;28;20082;-66
2022/05/30 06:45:57;;;;;;;2.30;0.60;;;20.50;44.50;19.70;100918.00;;;;5063894;28;20048;-66
2022/05/30 06:48:43;;;;;;;2.40;0.77;;;20.50;44.50;19.70;100915.00;;;;5062255;28;20036;-66
2022/05/30 06:51:29;;;;;;;2.42;0.70;;;20.50;44.40;19.70;100910.00;;;;5064275;28;20044;-66
2022/05/30 06:54:15;;;;;;;1.52;0.63;;;20.50;44.40;19.70;100921.00;;;;5059695;28;20048;-66
2022/05/30 07:00:07;;;;;;;1.48;0.50;;;20.50;44.40;19.70;100925.00;;;;5057795;28;20036;-66
2022/05/30 07:02:53;;;;;;;2.78;0.70;;;20.50;44.30;19.70;100922.00;;;;5048444;28;20032;-66
2022/05/30 07:05:41;;;;;;;1.95;0.70;;;20.50;44.30;19.70;100922.00;;;;5062506;28;20055;-66
2022/05/30 07:08:27;;;;;;;2.42;0.55;;;20.50;44.30;19.70;100932.00;;;;5070133;28;20454;-66
2022/05/30 07:11:17;;;;;;;1.73;0.60;;;20.50;44.20;19.70;100926.00;;;;5045217;28;20051;-66
2022/05/30 07:14:03;;;;;;;2.42;0.40;;;20.60;44.30;19.70;100926.00;;;;5063792;28;20064;-66
2022/05/30 07:16:49;;;;;;;1.35;0.40;;;20.50;44.20;19.70;100932.00;;;;5056781;28;20040;-66
2022/05/30 07:19:35;;;;;;;2.47;0.50;;;20.50;44.20;19.70;100922.00;;;;5063481;28;20036;-65
2022/05/30 07:22:22;;;;;;;2.03;0.43;;;20.50;44.20;19.70;100930.00;;;;5059878;28;20419;-66
2022/05/30 07:25:08;;;;;;;2.67;0.60;;;20.50;44.20;19.70;100928.00;;;;5062880;28;20051;-66
2022/05/30 07:27:54;;;;;;;2.28;0.60;;;20.50;44.20;19.70;100924.00;;;;5076063;28;20062;-66
2022/05/30 07:30:40;;;;;;;1.48;0.50;;;20.50;44.20;19.70;100930.00;;;;5063358;28;20051;-66
2022/05/30 07:33:26;;;;;;;3.30;0.45;;;20.50;44.10;19.70;100930.00;;;;5050128;28;20380;-66
2022/05/30 07:36:21;;;;;;;3.72;0.50;;;20.50;44.20;19.70;100936.00;;;;5062388;28;20045;-66
2022/05/30 07:39:07;;;;;;;1.75;0.50;;;20.50;44.20;19.70;100933.00;;;;5067512;28;20139;-66
2022/05/30 07:41:53;;;;;;;1.73;0.45;;;20.60;44.20;19.70;100943.00;;;;5057347;28;20367;-66
2022/05/30 07:44:39;;;;;;;2.00;0.50;;;20.50;44.10;19.70;100938.00;;;;5058808;28;20036;-66
2022/05/30 07:47:27;;;;;;;3.42;0.85;;;20.60;44.20;19.70;100936.00;;;;5055338;28;20040;-66
2022/05/30 07:50:13;;;;;;;;;;;20.60;44.20;19.70;100926.00;;;;5057111;28;20043;-66
2022/05/30 07:52:59;;;;;;;1.65;0.50;;;20.60;44.20;19.70;100935.00;;;;5045932;28;19918;-66
2022/05/30 07:55:45;;;;;;;1.20;0.50;;;20.60;44.00;19.70;100935.00;;;;5055073;28;20041;-66
2022/05/30 07:58:31;;;;;;;2.22;0.65;;;20.60;44.00;19.70;100931.00;;;;5056948;28;20041;-66
2022/05/30 08:01:19;;;;;;;0.93;0.40;;;20.60;43.90;19.70;100933.00;;;;5035829;28;20045;-66
2022/05/30 08:04:06;;;;;;;1.10;0.50;;;20.60;43.90;19.70;100931.00;;;;5048706;28;20490;-66
2022/05/30 08:06:53;;;;;;;3.80;1.08;;;20.60;43.90;19.70;100933.00;;;;5044563;28;20524;-66
2022/05/30 08:09:39;;;;;;;1.98;0.60;;;20.60;43.80;19.70;100927.00;;;;5037604;28;20045;-66
2022/05/30 08:12:25;;;;;;;2.00;0.35;;;20.60;43.80;19.70;100927.00;;;;5045979;28;20041;-66
2022/05/30 08:15:12;;;;;;;1.95;0.50;;;20.60;43.80;19.70;100927.00;;;;5043354;28;20044;-66
2022/05/30 08:17:59;;;;;;;2.45;0.60;;;20.60;43.80;19.70;100938.00;;;;5044792;28;20029;-66
2022/05/30 08:20:45;;;;;;;2.33;0.40;;;20.60;43.70;19.70;100930.00;;;;5047780;28;20363;-66
2022/05/30 08:23:31;;;;;;;2.10;0.55;;;20.60;43.70;19.70;100927.00;;;;5041596;28;20041;-65
2022/05/30 08:26:17;;;;;;;2.00;0.50;;;20.60;43.70;19.70;100921.00;;;;5044454;28;20453;-66
2022/05/30 08:29:03;;;;;;;3.78;0.40;;;20.60;43.70;19.70;100939.00;;;;5042132;28;20037;-66
2022/05/30 08:31:49;;;;;;;1.02;0.32;;;20.60;43.60;19.70;100924.00;;;;5043746;28;20052;-66
2022/05/30 08:34:36;;;;;;;0.85;0.28;;;20.60;43.60;19.70;100927.00;;;;5041150;28;20125;-66
2022/05/30 08:37:23;;;;;;;3.13;0.40;;;20.60;43.50;19.70;100927.00;;;;5036622;28;20137;-66
2022/05/30 08:43:35;;;;;;;0.82;0.30;;;20.60;43.50;19.70;100924.00;;;;5051452;28;20510;-66
2022/05/30 08:46:33;;;;;;;2.20;0.40;;;20.60;43.40;19.70;100925.00;;;;5032937;28;20118;-66
2022/05/30 08:49:34;;;;;;;0.32;0.17;;;20.60;43.50;19.70;100922.00;;;;5050176;28;20045;-66
2022/05/30 08:53:07;;;;;;;1.27;0.52;;;20.60;43.40;19.70;100921.00;;;;5038059;28;20048;-66
2022/05/30 08:56:27;;;;;;;1.85;0.30;;;20.60;43.50;19.70;100927.00;;;;5049075;28;20064;-66
2022/05/30 08:59:50;;;;;;;1.58;0.32;;;20.60;43.40;19.70;100930.00;;;;5040003;28;20041;-66
2022/05/30 09:02:51;;;;;;;1.25;0.40;;;20.60;43.40;19.70;100934.00;;;;5053203;28;20111;-66
2022/05/30 09:05:50;;;;;;;2.42;0.40;;;20.60;43.30;19.70;100933.00;;;;5030806;28;20453;-66
2022/05/30 09:08:45;;;;;;;0.70;0.20;;;20.60;43.30;19.70;100938.00;;;;5036575;28;20054;-66
2022/05/30 09:11:39;;;;;;;1.75;0.20;;;20.60;43.30;19.70;100943.00;;;;5039227;28;20053;-66
2022/05/30 09:14:36;;;;;;;1.10;0.20;;;20.60;43.30;19.70;100942.00;;;;5029785;28;20064;-66
2022/05/30 09:17:33;;;;;;;0.88;0.20;;;20.60;43.20;19.70;100944.00;;;;5047215;28;20208;-66
2022/05/30 09:20:22;;;;;;;1.55;0.30;;;20.60;43.20;19.70;100948.00;;;;5051406;28;20120;-66
2022/05/30 09:23:09;;;;;;;2.10;0.25;;;20.60;43.20;19.70;100939.00;;;;5049651;28;20045;-66
2022/05/30 09:26:00;;;;;;;1.52;0.30;;;20.60;43.20;19.70;100940.00;;;;5041015;28;20037;-66
2022/05/30 09:28:48;;;;;;;3.92;0.60;;;20.60;43.20;19.80;100946.00;;;;5037834;28;20041;-66
2022/05/30 09:32:38;;;;;;;;;;;20.60;43.10;19.80;100937.00;;;;5028380;28;20045;-66
2022/05/30 09:35:30;;;;;;;0.73;0.20;;;20.70;43.40;19.70;100934.00;;;;4979766;28;19930;-66
2022/05/30 09:38:22;;;;;;;1.67;0.40;;;20.70;42.90;19.70;100940.00;;;;4983255;28;20156;-66
2022/05/30 09:41:17;;;;;;;0.80;0.30;;;20.70;42.90;19.70;100936.00;;;;5018312;28;20034;-65
2022/05/30 09:44:22;;;;;;;1.60;0.30;;;20.70;42.80;19.80;100939.00;;;;5051169;28;20040;-66
2022/05/30 09:47:19;;;;;;;0.85;0.20;;;20.70;42.80;19.80;100930.00;;;;5047420;28;20114;-66
2022/05/30 09:50:19;;;;;;;0.55;0.10;;;20.70;42.70;19.80;100936.00;;;;5034688;28;20435;-66
2022/05/30 09:53:05;;;;;;;1.60;0.22;;;20.70;42.70;19.80;100919.00;;;;5037664;28;20041;-65
2022/05/30 09:55:51;;;;;;;1.58;0.30;;;20.70;42.80;19.80;100935.00;;;;5042321;28;20399;-66
2022/05/30 09:59:04;;;;;;;2.03;0.30;;;20.70;42.70;19.80;100935.00;;;;5056648;28;20271;-66
2022/05/30 10:01:51;;;;;;;0.80;0.20;;;20.70;42.60;19.80;100932.00;;;;5048983;28;20044;-66
2022/05/30 10:04:41;;;;;;;1.70;0.60;;;20.70;42.70;19.80;100939.00;;;;5044841;28;20293;-66
2022/05/30 10:07:27;;;;;;;1.25;0.30;;;20.70;42.60;19.80;100947.00;;;;5048052;28;20041;-66
2022/05/30 10:10:29;;;;;;;0.73;0.20;;;20.70;42.70;19.80;100953.00;;;;5057217;28;20073;-66
2022/05/30 10:13:29;;;;;;;1.02;0.20;;;20.70;42.70;19.80;100956.00;;;;5032750;28;20049;-66
2022/05/30 10:16:15;;;;;;;2.22;0.30;;;20.80;42.80;19.80;100956.00;;;;5044261;28;20048;-66
2022/05/30 10:19:06;;;;;;;1.42;0.40;;;20.70;43.50;19.80;100945.00;;;;5026648;28;20041;-72
2022/05/30 10:28:49;;;;;;;0.57;0.22;;;20.70;42.80;19.80;100954.00;;;;5041311;28;20051;-65
2022/05/30 10:32:03;;;;;;;3.45;0.15;;;20.70;42.80;19.80;100954.00;;;;5044486;28;20037;-66
2022/05/30 10:34:58;;;;;;;1.17;0.30;;;20.70;42.80;19.80;100953.00;;;;5047877;28;20402;-66
2022/05/30 10:37:53;;;;;;;0.40;0.20;;;20.80;43.60;19.80;100955.00;;;;5047674;28;20512;-65
2022/05/30 10:41:09;;;;;;;0.50;0.15;;;20.70;42.90;19.80;100949.00;;;;5045168;28;20037;-66
2022/05/30 10:44:15;;;;;;;1.23;0.15;;;20.70;42.80;19.80;100962.00;;;;5057127;28;20478;-66
2022/05/30 10:47:52;;;;;;;0.73;0.10;;;20.70;42.80;19.80;100953.00;;;;5053368;28;20042;-65
2022/05/30 10:50:53;;;;;;;0.95;0.20;;;20.70;42.70;19.80;100958.00;;;;5009509;28;20088;-67
2022/05/30 10:54:04;;;;;;;0.95;0.20;;;20.70;42.70;19.80;100960.00;;;;5018893;28;20434;-66
2022/05/30 10:56:52;;;;;;;0.35;0.08;;;20.70;42.60;19.80;100959.00;;;;5035066;28;20090;-66
2022/05/30 10:59:58;;;;;;;0.63;0.20;;;20.70;42.60;19.80;100962.00;;;;5023566;28;20040;-66
2022/05/30 11:03:22;;;;;;;0.15;0.15;;;20.70;42.50;19.80;100965.00;;;;5040747;28;20067;-66
2022/05/30 11:06:23;;;;;;;0.17;0.10;;;20.70;42.40;19.80;100968.00;;;;5046303;28;20045;-66
2022/05/30 11:09:34;;;;;;;1.08;0.20;;;20.80;42.40;19.80;100967.00;;;;5034388;28;20041;-66
2022/05/30 11:12:29;;;;;;;0.52;0.22;;;20.80;42.40;19.80;100961.00;;;;5053010;28;20052;-66
2022/05/30 11:15:38;;;;;;;0.75;0.17;;;20.80;42.40;19.80;100958.00;;;;5028827;28;20045;-65
2022/05/30 11:18:48;;;;;;;0.80;0.10;;;20.80;42.40;19.80;100965.00;;;;5042088;28;20042;-65
2022/05/30 11:22:03;;;;;;;0.57;0.20;;;20.80;42.30;19.80;100958.00;;;;5043854;28;20052;-66
2022/05/30 11:24:51;;;;;;;0.88;0.30;;;20.80;42.30;19.90;100969.00;;;;5055231;28;20115;-66
2022/05/30 11:28:14;;;;;;;0.57;0.13;;;20.80;42.30;19.90;100967.00;;;;5054440;28;20044;-66
2022/05/30 11:31:11;;;;;;;0.85;0.20;;;20.80;42.40;19.90;100965.00;;;;5031177;28;20439;-66
2022/05/30 11:34:47;;;;;;;0.75;0.10;;;20.80;42.40;19.90;100967.00;;;;5041236;28;20041;-66
2022/05/30 11:38:10;;;;;;;0.32;0.15;;;20.80;42.30;19.90;100973.00;;;;5042309;28;20049;-66
2022/05/30 11:41:26;;;;;;;1.02;0.30;;;20.80;42.30;19.90;100963.00;;;;5039097;28;20041;-66
2022/05/30 11:44:41;;;;;;;0.30;0.10;;;20.80;42.40;19.90;100967.00;;;;5021691;28;20076;-66
2022/05/30 11:48:10;;;;;;;2.00;0.30;;;20.80;43.00;19.90;100973.00;;;;5039802;28;20044;-66
2022/05/30 11:51:38;;;;;;;0.30;0.13;;;20.80;42.30;19.90;100961.00;;;;5036733;28;20041;-66
2022/05/30 11:54:57;;;;;;;0.52;0.20;;;20.80;42.20;19.80;100965.00;;;;5038197;28;20415;-66
2022/05/30 11:58:09;;;;;;;3.20;0.30;;;20.90;42.30;19.90;100974.00;;;;5014207;28;20053;-66
2022/05/30 12:00:55;;;;;;;1.00;0.13;;;20.90;42.30;19.90;100966.00;;;;5014855;28;20284;-66
2022/05/30 12:04:22;;;;;;;1.33;0.30;;;20.90;42.40;19.90;100972.00;;;;5035551;28;20171;-66
2022/05/30 12:07:34;;;;;;;0.43;0.10;;;20.90;42.30;19.90;100973.00;;;;5053448;28;20037;-65
2022/05/30 12:10:39;;;;;;;0.35;0.20;;;20.90;42.30;19.90;100973.00;;;;5048338;28;20064;-65
2022/05/30 12:14:22;;;;;;;1.02;0.30;;;20.90;42.30;19.90;100982.00;;;;5039635;28;20132;-66
2022/05/30 12:23:47;;;;;;;0.85;0.25;;;20.90;42.30;19.90;100976.00;;;;5036629;28;20444;-66
2022/05/30 12:24:44;;;;;;;0.60;0.20;;;20.80;42.20;19.90;100971.00;;;;5051409;28;20056;-66
2022/05/30 12:27:37;;;;;;;1.23;0.20;;;20.90;42.30;19.90;100973.00;;;;5043731;28;20341;-66
2022/05/30 12:30:35;;;;;;;1.63;0.28;;;20.80;42.10;19.90;100976.00;;;;5053709;28;20040;-65
2022/05/30 12:33:31;;;;;;;0.63;0.20;;;20.80;42.10;19.90;100980.00;;;;5045252;28;20041;-66
2022/05/30 12:36:17;;;;;;;0.77;0.15;;;20.80;42.10;19.90;100985.00;;;;5040591;28;20053;-66
2022/05/30 12:39:35;;;;;;;0.73;0.43;;;20.90;42.30;19.90;100980.00;;;;5040930;28;20029;-66
2022/05/30 12:42:32;;;;;;;1.55;0.35;;;20.90;42.20;19.90;100978.00;;;;5036756;28;20045;-66
2022/05/30 12:45:30;;;;;;;0.77;0.30;;;20.90;42.20;19.90;100982.00;;;;5035523;28;20497;-66
2022/05/30 12:48:25;;;;;;;1.33;0.20;;;20.90;42.20;19.90;100977.00;;;;5034627;28;20520;-66
2022/05/30 12:51:22;;;;;;;0.30;0.20;;;20.90;42.30;19.90;100979.00;;;;5040970;28;20064;-66
2022/05/30 12:54:08;;;;;;;1.60;0.32;;;20.90;42.20;19.90;100970.00;;;;5023130;28;20037;-66
2022/05/30 12:57:31;;;;;;;0.77;0.10;;;20.90;42.20;19.90;100972.00;;;;5036439;28;20067;-65
2022/05/30 13:00:20;;;;;;;0.57;0.20;;;20.90;42.20;19.90;100982.00;;;;5051059;28;20040;-66
2022/05/30 13:03:29;;;;;;;0.30;0.20;;;20.90;42.20;19.90;100983.00;;;;5042912;28;20520;-66